createdAt,value
2018-07-19T00:00:36.693Z,59.20
2018-07-19T00:03:05.858Z,59.50
2018-07-19T00:05:35.034Z,59.60
2018-07-19T00:08:04.253Z,59.60
2018-07-19T00:10:33.337Z,59.40
2018-07-19T00:13:02.504Z,59.30
2018-07-19T00:15:31.626Z,59.50
2018-07-19T00:18:00.738Z,59.40
2018-07-19T00:20:29.932Z,59.60
2018-07-19T00:22:59.084Z,59.60
2018-07-19T00:25:28.198Z,59.50
2018-07-19T00:27:57.318Z,59.80
2018-07-19T00:30:26.480Z,60.10
2018-07-19T00:32:55.652Z,60.00
2018-07-19T00:35:24.838Z,60.10
2018-07-19T00:37:53.985Z,60.30
2018-07-19T00:40:23.157Z,61.50
2018-07-19T00:42:52.383Z,61.90
2018-07-19T00:45:21.527Z,61.90
2018-07-19T00:47:50.675Z,61.60
2018-07-19T00:50:19.829Z,62.30
2018-07-19T00:52:49.036Z,61.60
2018-07-19T00:55:18.162Z,62.00
2018-07-19T00:57:47.306Z,62.00
2018-07-19T01:00:16.476Z,62.20
2018-07-19T01:02:45.566Z,62.50
2018-07-19T01:05:14.745Z,62.60
2018-07-19T01:07:43.864Z,62.80
2018-07-19T01:10:13.022Z,63.30
2018-07-19T01:15:10.857Z,63.90
2018-07-19T01:17:40.037Z,64.50
2018-07-19T01:20:09.173Z,64.80
2018-07-19T01:22:38.366Z,65.00
2018-07-19T01:25:07.776Z,65.10
2018-07-19T01:27:36.900Z,64.70
2018-07-19T01:30:06.501Z,65.10
2018-07-19T01:32:35.901Z,65.50
2018-07-19T01:35:05.152Z,65.70
2018-07-19T01:37:34.309Z,66.20
2018-07-19T01:40:03.465Z,66.10
2018-07-19T01:42:35.424Z,66.10
2018-07-19T01:45:05.853Z,66.20
2018-07-19T01:47:35.017Z,65.80
2018-07-19T01:50:04.634Z,65.70
2018-07-19T01:52:33.793Z,65.90
2018-07-19T01:55:02.999Z,66.20
2018-07-19T01:57:32.157Z,66.00
2018-07-19T02:00:01.356Z,66.10
2018-07-19T02:02:30.505Z,65.70
2018-07-19T02:04:59.725Z,66.60
2018-07-19T02:07:28.857Z,67.20
2018-07-19T02:09:58.008Z,67.50
2018-07-19T02:12:27.177Z,67.90
2018-07-19T02:14:56.329Z,68.30
2018-07-19T02:17:25.527Z,68.80
2018-07-19T02:19:54.681Z,68.90
2018-07-19T02:22:23.827Z,69.20
2018-07-19T02:24:52.940Z,69.90
2018-07-19T02:27:22.138Z,69.50
2018-07-19T02:29:51.266Z,68.70
2018-07-19T02:32:20.403Z,68.80
2018-07-19T02:34:49.660Z,68.90
2018-07-19T02:37:18.841Z,67.90
2018-07-19T02:39:47.994Z,67.40
2018-07-19T02:42:17.087Z,67.00
2018-07-19T02:44:46.326Z,67.40
2018-07-19T02:47:15.510Z,67.70
2018-07-19T02:49:44.662Z,67.90
2018-07-19T02:52:13.801Z,67.50
2018-07-19T02:54:43.001Z,67.60
2018-07-19T02:57:12.161Z,67.70
2018-07-19T02:59:41.309Z,68.40
2018-07-19T03:02:10.438Z,68.50
2018-07-19T03:04:39.589Z,68.90
2018-07-19T03:07:08.775Z,69.50
2018-07-19T03:09:37.878Z,69.40
2018-07-19T03:12:07.186Z,70.20
2018-07-19T03:14:36.317Z,71.30
2018-07-19T03:17:05.597Z,71.00
2018-07-19T03:19:34.881Z,70.80
2018-07-19T03:22:04.041Z,69.00
2018-07-19T03:24:33.197Z,69.20
2018-07-19T03:27:02.405Z,69.10
2018-07-19T03:29:31.513Z,69.20
2018-07-19T03:32:00.692Z,70.00
2018-07-19T03:34:29.819Z,70.30
2018-07-19T03:36:58.944Z,70.00
2018-07-19T03:39:28.097Z,69.80
2018-07-19T03:41:57.355Z,69.40
2018-07-19T03:44:26.737Z,69.60
2018-07-19T03:46:55.864Z,69.80
2018-07-19T03:49:25.076Z,70.60
2018-07-19T03:51:54.229Z,71.40
2018-07-19T03:54:23.356Z,72.00
2018-07-19T03:56:52.555Z,71.00
2018-07-19T03:59:21.702Z,70.60
2018-07-19T04:01:50.898Z,70.70
2018-07-19T04:04:20.001Z,70.50
2018-07-19T04:06:49.216Z,70.30
2018-07-19T04:09:18.332Z,70.00
2018-07-19T04:11:47.454Z,69.90
2018-07-19T04:14:16.599Z,69.70
2018-07-19T04:16:45.730Z,69.70
2018-07-19T04:19:14.861Z,69.50
2018-07-19T04:21:44.010Z,69.30
2018-07-19T04:24:13.187Z,69.40
2018-07-19T04:26:42.412Z,68.70
2018-07-19T04:29:11.658Z,68.90
2018-07-19T04:31:40.781Z,68.90
2018-07-19T04:34:09.954Z,68.80
2018-07-19T04:36:39.112Z,69.00
2018-07-19T04:39:09.014Z,69.20
2018-07-19T04:41:38.219Z,68.90
2018-07-19T04:44:07.391Z,68.50
2018-07-19T04:46:36.549Z,68.10
2018-07-19T04:49:05.710Z,68.50
2018-07-19T04:51:34.895Z,68.70
2018-07-19T04:54:04.102Z,68.80
2018-07-19T04:56:33.326Z,69.40
2018-07-19T04:59:02.692Z,69.70
2018-07-19T05:01:31.854Z,68.70
2018-07-19T05:04:01.052Z,69.40
2018-07-19T05:06:30.162Z,70.10
2018-07-19T05:08:59.341Z,69.90
2018-07-19T05:11:28.516Z,70.30
2018-07-19T05:13:57.751Z,70.00
2018-07-19T05:16:26.897Z,70.80
2018-07-19T05:18:56.072Z,70.10
2018-07-19T05:21:25.245Z,69.00
2018-07-19T05:23:54.583Z,68.80
2018-07-19T05:26:23.706Z,70.00
2018-07-19T05:28:52.862Z,68.70
2018-07-19T05:31:22.010Z,69.30
2018-07-19T05:33:51.152Z,68.40
2018-07-19T05:36:20.350Z,68.80
2018-07-19T05:38:49.554Z,68.30
2018-07-19T05:41:18.785Z,69.80
2018-07-19T05:43:47.950Z,68.50
2018-07-19T05:46:17.271Z,68.60
2018-07-19T05:51:15.120Z,68.40
2018-07-19T05:53:44.336Z,68.80
2018-07-19T05:56:14.266Z,69.60
2018-07-19T05:58:43.418Z,70.30
2018-07-19T06:01:12.555Z,69.10
2018-07-19T06:03:41.810Z,69.30
2018-07-19T06:06:10.992Z,68.60
2018-07-19T06:08:40.211Z,68.60
2018-07-19T06:11:09.411Z,68.40
2018-07-19T06:13:38.553Z,68.20
2018-07-19T06:16:07.853Z,69.60
2018-07-19T06:18:37.102Z,69.50
2018-07-19T06:21:06.277Z,70.20
2018-07-19T06:23:35.545Z,70.30
2018-07-19T06:26:04.837Z,69.60
2018-07-19T06:28:34.202Z,68.50
2018-07-19T06:31:03.512Z,66.70
2018-07-19T06:33:32.694Z,66.80
2018-07-19T06:36:01.838Z,66.40
2018-07-19T06:38:30.993Z,66.40
2018-07-19T06:41:00.203Z,66.10
2018-07-19T06:43:29.495Z,65.30
2018-07-19T06:45:58.674Z,64.70
2018-07-19T06:48:27.950Z,63.40
2018-07-19T06:50:57.174Z,62.20
2018-07-19T06:53:26.377Z,61.50
2018-07-19T06:55:55.531Z,59.70
2018-07-19T06:58:24.855Z,59.40
2018-07-19T07:01:00.688Z,58.80
2018-07-19T07:03:31.930Z,58.20
2018-07-19T07:06:01.063Z,57.90
2018-07-19T07:08:30.277Z,56.80
2018-07-19T07:10:59.425Z,54.00
2018-07-19T07:13:28.579Z,53.30
2018-07-19T07:15:57.822Z,53.00
2018-07-19T07:18:27.111Z,52.20
2018-07-19T07:20:56.252Z,51.90
2018-07-19T07:23:25.446Z,51.10
2018-07-19T07:25:55.624Z,49.90
2018-07-19T07:28:25.968Z,48.40
2018-07-19T07:30:55.155Z,47.10
2018-07-19T07:33:24.324Z,46.70
2018-07-19T07:35:53.501Z,46.00
2018-07-19T07:38:23.027Z,45.50
2018-07-19T07:40:52.310Z,43.80
2018-07-19T07:43:21.606Z,43.30
2018-07-19T07:45:50.857Z,43.40
2018-07-19T07:48:20.000Z,41.70
2018-07-19T07:50:49.205Z,40.20
2018-07-19T07:53:18.303Z,40.00
2018-07-19T07:55:47.485Z,39.00
2018-07-19T07:58:16.631Z,37.80
2018-07-19T08:00:45.792Z,37.60
2018-07-19T08:03:15.002Z,36.80
2018-07-19T08:05:44.261Z,36.10
2018-07-19T08:08:13.411Z,36.30
2018-07-19T08:10:42.536Z,35.10
2018-07-19T08:13:11.733Z,35.00
2018-07-19T08:15:40.906Z,34.00
2018-07-19T08:18:10.146Z,33.60
2018-07-19T08:20:39.281Z,32.80
2018-07-19T08:28:06.700Z,33.60
2018-07-19T08:30:36.644Z,32.60
2018-07-19T08:33:05.971Z,33.00
2018-07-19T08:35:35.207Z,33.10
2018-07-19T08:38:04.810Z,31.90
2018-07-19T08:40:34.121Z,32.30
2018-07-19T08:45:32.184Z,33.20
2018-07-19T08:48:01.396Z,33.20
2018-07-19T08:50:30.577Z,34.50
2018-07-19T08:52:59.761Z,35.10
2018-07-19T08:55:29.029Z,35.00
2018-07-19T08:57:58.226Z,36.40
2018-07-19T09:00:27.410Z,38.00
2018-07-19T09:02:56.645Z,38.10
2018-07-19T09:05:25.871Z,38.50
2018-07-19T09:07:55.166Z,38.60
2018-07-19T09:10:24.424Z,39.00
2018-07-19T09:12:53.565Z,40.60
2018-07-19T09:15:22.821Z,41.30
2018-07-19T09:17:52.074Z,43.60
2018-07-19T09:20:21.275Z,43.30
2018-07-19T09:22:50.492Z,45.30
2018-07-19T09:25:19.730Z,45.70
2018-07-19T09:27:48.861Z,45.90
2018-07-19T09:30:18.083Z,46.70
2018-07-19T09:32:47.409Z,46.50
2018-07-19T09:35:16.683Z,45.10
2018-07-19T09:37:46.118Z,45.10
2018-07-19T09:40:15.445Z,46.00
2018-07-19T09:42:44.617Z,45.60
2018-07-19T09:45:13.834Z,45.80
2018-07-19T09:47:43.032Z,46.10
2018-07-19T09:50:12.708Z,46.90
2018-07-19T09:52:42.794Z,46.80
2018-07-19T09:55:11.879Z,46.10
2018-07-19T09:57:41.081Z,45.80
2018-07-19T10:00:10.401Z,45.50
2018-07-19T10:02:39.592Z,44.00
2018-07-19T10:05:08.798Z,43.30
2018-07-19T10:07:38.127Z,42.70
2018-07-19T10:10:07.383Z,41.90
2018-07-19T10:12:36.638Z,42.30
2018-07-19T10:15:05.865Z,41.40
2018-07-19T10:17:35.010Z,41.00
2018-07-19T10:20:04.522Z,43.20
2018-07-19T10:22:33.673Z,43.20
2018-07-19T10:25:02.838Z,42.50
2018-07-19T10:27:32.086Z,41.60
2018-07-19T10:30:01.350Z,41.20
2018-07-19T10:32:30.634Z,39.80
2018-07-19T10:34:59.829Z,41.00
2018-07-19T10:37:29.091Z,41.60
2018-07-19T10:39:58.222Z,41.50
2018-07-19T10:42:28.318Z,41.30
2018-07-19T10:44:57.582Z,40.90
2018-07-19T10:47:26.774Z,41.20
2018-07-19T10:49:56.099Z,41.50
2018-07-19T10:52:25.511Z,41.30
2018-07-19T10:54:54.652Z,41.20
2018-07-19T10:57:23.856Z,40.90
2018-07-19T10:59:52.999Z,41.00
2018-07-19T11:02:22.214Z,40.80
2018-07-19T11:04:51.334Z,40.80
2018-07-19T11:07:20.477Z,40.80
2018-07-19T11:09:49.868Z,41.10
2018-07-19T11:12:19.010Z,40.70
2018-07-19T11:14:48.106Z,40.30
2018-07-19T11:17:17.261Z,40.50
2018-07-19T11:19:46.408Z,40.70
2018-07-19T11:22:15.598Z,40.40
2018-07-19T11:24:45.346Z,39.70
2018-07-19T11:27:15.274Z,39.70
2018-07-19T11:29:44.471Z,39.70
2018-07-19T11:32:13.612Z,40.60
2018-07-19T11:34:42.801Z,40.00
2018-07-19T11:37:12.051Z,40.60
2018-07-19T11:39:41.250Z,40.20
2018-07-19T11:42:10.921Z,40.30
2018-07-19T11:44:40.202Z,39.70
2018-07-19T11:47:09.468Z,39.60
2018-07-19T11:49:38.653Z,39.70
2018-07-19T11:52:07.798Z,39.70
2018-07-19T11:54:36.940Z,38.90
2018-07-19T11:57:06.173Z,39.00
2018-07-19T11:59:35.436Z,39.40
2018-07-19T12:02:04.632Z,39.70
2018-07-19T12:04:33.779Z,39.40
2018-07-19T12:07:02.984Z,39.60
2018-07-19T12:09:32.121Z,39.60
2018-07-19T12:12:01.315Z,39.40
2018-07-19T12:14:30.524Z,39.10
2018-07-19T12:16:59.739Z,39.40
2018-07-19T12:19:28.941Z,39.00
2018-07-19T12:21:58.240Z,38.60
2018-07-19T12:24:27.384Z,38.70
2018-07-19T12:26:56.561Z,38.90
2018-07-19T12:29:25.661Z,38.60
2018-07-19T12:31:54.873Z,38.10
2018-07-19T12:34:24.069Z,37.80
2018-07-19T12:36:53.240Z,38.00
2018-07-19T12:39:22.379Z,37.40
2018-07-19T12:41:51.534Z,37.50
2018-07-19T12:44:20.689Z,38.30
2018-07-19T12:46:49.890Z,38.60
2018-07-19T12:49:19.491Z,38.60
2018-07-19T12:51:48.649Z,38.70
2018-07-19T12:54:17.770Z,38.30
2018-07-19T12:56:46.987Z,38.10
2018-07-19T12:59:16.167Z,38.40
2018-07-19T13:01:45.453Z,39.00
2018-07-19T13:04:14.568Z,38.70
2018-07-19T13:06:43.697Z,38.40
2018-07-19T13:09:12.861Z,38.00
2018-07-19T13:11:42.166Z,37.80
2018-07-19T13:14:12.033Z,37.90
2018-07-19T13:16:41.389Z,38.20
2018-07-19T13:19:10.481Z,37.90
2018-07-19T13:21:39.774Z,38.00
2018-07-19T13:24:09.208Z,38.30
2018-07-19T13:26:38.534Z,37.50
2018-07-19T13:29:07.733Z,38.10
2018-07-19T13:31:36.869Z,38.00
2018-07-19T13:34:06.258Z,37.40
2018-07-19T13:36:35.533Z,38.40
2018-07-19T13:39:07.325Z,37.40
2018-07-19T13:41:36.618Z,37.60
2018-07-19T13:44:06.082Z,37.30
2018-07-19T13:46:35.277Z,36.40
2018-07-19T13:49:04.489Z,36.40
2018-07-19T13:51:33.618Z,36.60
2018-07-19T13:54:10.828Z,36.50
2018-07-19T13:56:40.329Z,36.70
2018-07-19T13:59:09.460Z,37.20
2018-07-19T14:01:38.877Z,36.90
2018-07-19T14:04:08.415Z,36.90
2018-07-19T14:06:37.579Z,36.70
2018-07-19T14:09:08.747Z,36.80
2018-07-19T14:11:37.972Z,36.70
2018-07-19T14:14:07.174Z,37.20
2018-07-19T14:16:36.264Z,36.80
2018-07-19T14:19:05.801Z,37.30
2018-07-19T14:21:35.186Z,37.00
2018-07-19T14:24:04.601Z,37.30
2018-07-19T14:26:34.418Z,35.90
2018-07-19T14:29:04.123Z,36.30
2018-07-19T14:31:33.401Z,37.00
2018-07-19T14:34:02.506Z,36.80
2018-07-19T14:36:31.708Z,36.20
2018-07-19T14:39:00.818Z,36.20
2018-07-19T14:41:30.165Z,36.00
2018-07-19T14:43:59.468Z,36.70
2018-07-19T14:48:57.533Z,35.60
2018-07-19T14:51:26.646Z,36.00
2018-07-19T14:53:55.861Z,35.40
2018-07-19T14:56:24.998Z,35.60
2018-07-19T14:58:54.265Z,36.80
2018-07-19T15:01:23.413Z,36.50
2018-07-19T15:03:52.547Z,36.20
2018-07-19T15:06:21.717Z,36.20
2018-07-19T15:08:50.882Z,37.70
2018-07-19T15:11:20.075Z,36.80
2018-07-19T15:13:49.192Z,36.20
2018-07-19T15:16:18.584Z,36.20
2018-07-19T15:18:47.803Z,36.50
2018-07-19T15:21:16.929Z,36.30
2018-07-19T15:23:46.120Z,36.20
2018-07-19T15:26:15.269Z,36.00
2018-07-19T15:28:44.479Z,36.10
2018-07-19T15:31:13.629Z,36.20
2018-07-19T15:33:42.807Z,37.10
2018-07-19T15:36:12.019Z,37.00
2018-07-19T15:38:41.204Z,36.80
2018-07-19T15:41:10.385Z,37.10
2018-07-19T15:43:39.468Z,37.60
2018-07-19T15:46:08.590Z,37.50
2018-07-19T15:48:37.789Z,37.70
2018-07-19T15:51:07.109Z,38.30
2018-07-19T15:53:36.269Z,38.40
2018-07-19T15:56:05.596Z,38.40
2018-07-19T15:58:34.730Z,38.00
2018-07-19T16:01:04.073Z,38.60
2018-07-19T16:03:33.226Z,38.50
2018-07-19T16:06:03.398Z,38.50
2018-07-19T16:08:32.546Z,38.60
2018-07-19T16:11:01.683Z,38.60
2018-07-19T16:13:30.857Z,38.80
2018-07-19T16:16:00.071Z,38.50
2018-07-19T16:20:57.914Z,38.50
2018-07-19T16:23:27.183Z,38.40
2018-07-19T16:25:57.311Z,38.50
2018-07-19T16:28:26.468Z,38.30
2018-07-19T16:30:55.704Z,38.40
2018-07-19T16:33:25.089Z,38.40
2018-07-19T16:35:54.257Z,39.00
2018-07-19T16:38:23.553Z,38.90
2018-07-19T16:40:52.834Z,38.70
2018-07-19T16:43:21.908Z,38.60
2018-07-19T16:45:51.094Z,38.40
2018-07-19T16:48:20.676Z,38.50
2018-07-19T16:50:49.963Z,38.70
2018-07-19T16:53:19.197Z,39.00
2018-07-19T16:55:48.406Z,39.30
2018-07-19T16:58:17.730Z,40.00
2018-07-19T17:00:46.895Z,38.80
2018-07-19T17:03:16.099Z,38.90
2018-07-19T17:05:45.388Z,38.80
2018-07-19T17:08:14.695Z,39.00
2018-07-19T17:10:43.968Z,39.30
2018-07-19T17:13:13.734Z,39.50
2018-07-19T17:15:42.993Z,39.30
2018-07-19T17:18:12.205Z,39.30
2018-07-19T17:20:41.472Z,39.00
2018-07-19T17:23:10.685Z,39.20
2018-07-19T17:25:39.889Z,38.90
2018-07-19T17:28:09.610Z,39.30
2018-07-19T17:30:38.770Z,39.30
2018-07-19T17:33:08.504Z,39.10
2018-07-19T17:35:38.248Z,38.90
2018-07-19T17:38:07.443Z,39.50
2018-07-19T17:40:36.658Z,39.00
2018-07-19T17:43:06.226Z,39.00
2018-07-19T17:45:36.414Z,39.40
2018-07-19T17:48:06.586Z,39.20
2018-07-19T17:50:36.118Z,39.20
2018-07-19T17:53:05.778Z,39.50
2018-07-19T17:55:35.962Z,39.20
2018-07-19T17:58:05.203Z,39.20
2018-07-19T18:00:34.370Z,40.00
2018-07-19T18:03:03.549Z,39.70
2018-07-19T18:05:32.763Z,39.20
2018-07-19T18:08:01.977Z,39.40
2018-07-19T18:10:31.101Z,39.50
2018-07-19T18:13:00.269Z,39.30
2018-07-19T18:15:29.378Z,39.70
2018-07-19T18:17:58.534Z,39.60
2018-07-19T18:20:27.758Z,39.80
2018-07-19T18:22:58.041Z,39.80
2018-07-19T18:25:27.594Z,40.40
2018-07-19T18:27:56.806Z,39.60
2018-07-19T18:30:27.006Z,39.60
2018-07-19T18:33:00.826Z,39.70
2018-07-19T18:35:33.850Z,39.70
2018-07-19T18:38:12.357Z,39.90
2018-07-19T18:40:43.302Z,40.00
2018-07-19T18:43:12.650Z,40.10
2018-07-19T18:45:42.365Z,40.00
2018-07-19T18:48:12.231Z,40.20
2018-07-19T18:53:10.686Z,40.40
2018-07-19T18:55:41.728Z,40.40
2018-07-19T18:58:11.233Z,40.80
2018-07-19T19:00:40.863Z,40.40
2018-07-19T19:03:10.071Z,40.60
2018-07-19T19:05:39.295Z,40.60
2018-07-19T19:08:08.608Z,41.00
2018-07-19T19:10:38.336Z,41.30
2018-07-19T19:13:08.324Z,41.80
2018-07-19T19:15:37.961Z,41.80
2018-07-19T19:18:07.271Z,42.10
2018-07-19T19:20:39.455Z,42.50
2018-07-19T19:23:09.939Z,43.60
2018-07-19T19:25:39.618Z,43.20
2018-07-19T19:28:09.020Z,43.10
2018-07-19T19:30:38.264Z,43.20
2018-07-19T19:33:07.460Z,43.70
2018-07-19T19:35:36.667Z,43.80
2018-07-19T19:38:05.943Z,44.20
2018-07-19T19:40:35.121Z,44.50
2018-07-19T19:43:04.425Z,44.50
2018-07-19T19:45:33.650Z,44.70
2018-07-19T19:48:03.176Z,44.90
2018-07-19T19:50:32.592Z,45.00
2018-07-19T19:53:02.794Z,45.50
2018-07-19T19:55:32.831Z,45.10
2018-07-19T20:00:31.040Z,45.80
2018-07-19T20:03:00.353Z,45.20
2018-07-19T20:05:29.831Z,45.00
2018-07-19T20:07:59.037Z,44.90
2018-07-19T20:10:28.274Z,44.40
2018-07-19T20:12:57.506Z,44.40
2018-07-19T20:15:27.551Z,44.50
2018-07-19T20:17:56.854Z,44.20
2018-07-19T20:20:26.206Z,44.90
2018-07-19T20:22:55.401Z,46.40
2018-07-19T20:25:25.346Z,46.40
2018-07-19T20:27:54.758Z,46.70
2018-07-19T20:30:23.926Z,47.00
2018-07-19T20:32:53.597Z,47.20
2018-07-19T20:35:22.764Z,47.00
2018-07-19T20:37:52.264Z,46.70
2018-07-19T20:40:21.541Z,47.10
2018-07-19T20:42:50.775Z,47.50
2018-07-19T20:45:20.330Z,47.30
2018-07-19T20:47:49.876Z,47.30
2018-07-19T20:50:19.073Z,47.60
2018-07-19T20:52:48.317Z,47.90
2018-07-19T20:55:17.537Z,47.80
2018-07-19T20:57:46.724Z,47.20
2018-07-19T21:00:16.020Z,47.80
2018-07-19T21:02:45.530Z,47.70
2018-07-19T21:05:14.766Z,48.50
2018-07-19T21:07:44.235Z,47.40
2018-07-19T21:10:13.583Z,48.00
2018-07-19T21:12:42.883Z,48.10
2018-07-19T21:15:12.073Z,48.30
2018-07-19T21:17:41.336Z,48.30
2018-07-19T21:20:10.718Z,48.60
2018-07-19T21:22:39.963Z,48.80
2018-07-19T21:25:09.202Z,49.20
2018-07-19T21:27:38.514Z,48.90
2018-07-19T21:30:08.097Z,48.80
2018-07-19T21:32:37.308Z,48.90
2018-07-19T21:35:06.693Z,48.90
2018-07-19T21:37:35.969Z,49.00
2018-07-19T21:40:05.272Z,49.20
2018-07-19T21:42:34.527Z,49.40
2018-07-19T21:45:03.835Z,49.90
2018-07-19T21:47:33.033Z,50.30
2018-07-19T21:50:02.361Z,50.50
2018-07-19T21:52:31.718Z,50.80
2018-07-19T21:55:00.969Z,51.30
2018-07-19T21:57:30.200Z,51.90
2018-07-19T21:59:59.430Z,52.20
2018-07-19T22:02:28.616Z,52.60
2018-07-19T22:04:57.972Z,52.80
2018-07-19T22:07:27.221Z,53.20
2018-07-19T22:09:56.543Z,53.20
2018-07-19T22:12:25.826Z,53.30
2018-07-19T22:14:55.063Z,53.80
2018-07-19T22:17:25.208Z,53.60
2018-07-19T22:19:54.422Z,53.70
2018-07-19T22:24:52.698Z,54.20
2018-07-19T22:27:22.258Z,54.20
2018-07-19T22:29:51.654Z,54.00
2018-07-19T22:32:20.895Z,53.90
2018-07-19T22:34:50.133Z,54.00
2018-07-19T22:37:19.395Z,54.40
2018-07-19T22:39:48.616Z,54.60
2018-07-19T22:42:17.840Z,54.60
2018-07-19T22:44:47.106Z,54.90
2018-07-19T22:49:45.309Z,54.90
2018-07-19T22:52:14.453Z,54.80
2018-07-19T22:54:43.759Z,54.80
2018-07-19T22:57:13.071Z,54.90
2018-07-19T22:59:42.293Z,55.60
2018-07-19T23:02:11.517Z,55.80
2018-07-19T23:04:40.752Z,56.00
2018-07-19T23:07:09.969Z,56.20
2018-07-19T23:09:39.221Z,56.40
2018-07-19T23:12:08.516Z,56.70
2018-07-19T23:14:37.759Z,56.50
2018-07-19T23:17:07.016Z,56.60
2018-07-19T23:19:36.351Z,56.20
2018-07-19T23:22:05.883Z,56.90
2018-07-19T23:24:35.122Z,57.50
2018-07-19T23:27:04.457Z,58.20
2018-07-19T23:29:33.956Z,58.70
2018-07-19T23:32:03.880Z,58.80
2018-07-19T23:34:33.090Z,58.50
2018-07-19T23:37:05.985Z,58.10
2018-07-19T23:39:41.828Z,58.10
2018-07-19T23:42:16.709Z,58.60
2018-07-19T23:45:09.555Z,58.80
2018-07-19T23:47:40.848Z,59.00
2018-07-19T23:50:10.041Z,59.00
2018-07-19T23:52:39.292Z,59.20
2018-07-19T23:55:08.549Z,59.30
2018-07-19T23:57:37.790Z,59.40
